Iblea — IBFK — position and weather

sailwx.info

Track history (hours):
 
Tides and Currents Weather Stations Pressure Air Temp Water Temp Dewpoint Dewpoint Depression Visibility Wind Speed Wind Dir Waves Ship Positions

Iblea

Last reported at 2016-Aug-23 12:33 UTC. Time now 2016-Aug-24 17:57 UTC.
Position N 45°07' E 036°38'.

Length 176 m; draft 7.3 m.

Type: Ship. MMSI: 247087700.

Date/timePositionNaut miles runAvg speedWind from/ knotsBaromVisibWave heightAir tempDewpointWater temp
2016-Aug-23 12:33N 45°07' E 036°38'8 8.3
2016-Aug-23 11:33N 44°59' E 036°34'7 2.3
2016-Aug-23 08:16N 44°52' E 036°36'0 0.0
2016-Aug-23 03:32N 44°52' E 036°36'0 0.1
2016-Aug-23 02:32N 44°52' E 036°36'0 0.0
2016-Aug-23 01:32N 44°52' E 036°36'0 0.0
2016-Aug-22 23:31N 44°52' E 036°36'0 0.0
2016-Aug-22 22:31N 44°52' E 036°36'0 0.0
2016-Aug-22 21:28N 44°52' E 036°36'0 0.0
2016-Aug-22 20:31N 44°52' E 036°36'0 0.0
2016-Aug-22 18:25N 44°52' E 036°36'0 0.0
2016-Aug-22 16:29N 44°52' E 036°36'0 0.1
2016-Aug-22 15:28N 44°52' E 036°36'0 0.0
2016-Aug-22 14:25N 44°52' E 036°36'0 0.1
2016-Aug-22 13:29N 44°52' E 036°36'0 0.0
2016-Aug-22 09:32N 44°52' E 036°36'0 0.0
2016-Aug-21 17:17N 44°52' E 036°36'0 0.1
2016-Aug-21 16:22N 44°52' E 036°36'0 0.2
2016-Aug-21 15:31N 44°52' E 036°36'0 0.0
2016-Aug-21 14:29N 44°52' E 036°36'0 0.1
2016-Aug-21 13:32N 44°52' E 036°36'0 0.0
2016-Aug-21 12:32N 44°52' E 036°36'0 0.0
2016-Aug-21 11:31N 44°52' E 036°36'0 0.0
2016-Aug-21 10:32N 44°52' E 036°36'0 0.0
2016-Aug-21 09:22N 44°52' E 036°36'0 0.0
2016-Aug-21 02:25N 44°52' E 036°36'0 0.0
2016-Aug-21 01:31N 44°52' E 036°36'0 0.0
2016-Aug-20 19:32N 44°52' E 036°36'0 0.0
2016-Aug-20 18:14N 44°52' E 036°36'0 0.0
2016-Aug-20 17:32N 44°52' E 036°36'0 0.0
2016-Aug-20 16:32N 44°52' E 036°36'0 0.0
2016-Aug-20 14:22N 44°52' E 036°36'0 0.1
2016-Aug-20 13:31N 44°52' E 036°36'0 0.0
2016-Aug-20 12:32N 44°52' E 036°36'0 0.0
2016-Aug-20 10:05N 44°52' E 036°36'0 0.0
2016-Aug-20 09:32N 44°52' E 036°36'0 0.0
2016-Aug-19 19:26N 44°52' E 036°36'0 0.0
2016-Aug-19 18:31N 44°52' E 036°36'0 0.0
2016-Aug-19 16:31N 44°52' E 036°36'0 0.0
2016-Aug-17 22:20N 44°52' E 036°36'3 0.2
2016-Aug-17 08:28N 44°53' E 036°33'79 9.8
2016-Aug-17 00:24N 44°01' E 035°10'910.8
2016-Aug-16 23:33N 43°56' E 034°60'1410.8
2016-Aug-16 22:13N 43°48' E 034°43'811.0
2016-Aug-16 21:32N 43°44' E 034°34'295 6.1
2016-Aug-14 21:10N 41°02' E 029°00'5 7.3
2016-Aug-14 20:32N 40°57' E 028°60'1110.7
2016-Aug-14 19:32N 40°49' E 028°50'10 1.9
2016-Aug-14 14:33N 40°39' E 028°52'1 0.5
2016-Aug-14 13:29N 40°39' E 028°53'1 1.0
2016-Aug-14 12:05N 40°41' E 028°53'1 1.1
2016-Aug-14 11:29N 40°41' E 028°53'1 1.2
2016-Aug-14 10:24N 40°42' E 028°53'5 6.1
2016-Aug-14 09:31N 40°48' E 028°55'2 1.6
2016-Aug-14 08:33N 40°49' E 028°56'2 1.8
2016-Aug-14 07:33N 40°47' E 028°55'6 6.2
2016-Aug-14 06:33N 40°48' E 028°46'  
Track history (hours):
 
Tides and Currents Weather Stations Pressure Air Temp Water Temp Dewpoint Dewpoint Depression Visibility Wind Speed Wind Dir Waves Ship Positions

Iblea

Last reported at 2016-Aug-23 12:33 UTC. Time now 2016-Aug-24 17:57 UTC.
Position N 45°07' E 036°38'.

Length 176 m; draft 7.3 m.

Type: Ship. MMSI: 247087700.

Date/timePositionNaut miles runAvg speedWind from/ knotsBaromVisibWave heightAir tempDewpointWater temp
2016-Aug-23 12:33N 45°07' E 036°38'8 8.3
2016-Aug-23 11:33N 44°59' E 036°34'7 2.3
2016-Aug-23 08:16N 44°52' E 036°36'0 0.0
2016-Aug-23 03:32N 44°52' E 036°36'0 0.1
2016-Aug-23 02:32N 44°52' E 036°36'0 0.0
2016-Aug-23 01:32N 44°52' E 036°36'0 0.0
2016-Aug-22 23:31N 44°52' E 036°36'0 0.0
2016-Aug-22 22:31N 44°52' E 036°36'0 0.0
2016-Aug-22 21:28N 44°52' E 036°36'0 0.0
2016-Aug-22 20:31N 44°52' E 036°36'0 0.0
2016-Aug-22 18:25N 44°52' E 036°36'0 0.0
2016-Aug-22 16:29N 44°52' E 036°36'0 0.1
2016-Aug-22 15:28N 44°52' E 036°36'0 0.0
2016-Aug-22 14:25N 44°52' E 036°36'0 0.1
2016-Aug-22 13:29N 44°52' E 036°36'0 0.0
2016-Aug-22 09:32N 44°52' E 036°36'0 0.0
2016-Aug-21 17:17N 44°52' E 036°36'0 0.1
2016-Aug-21 16:22N 44°52' E 036°36'0 0.2
2016-Aug-21 15:31N 44°52' E 036°36'0 0.0
2016-Aug-21 14:29N 44°52' E 036°36'0 0.1
2016-Aug-21 13:32N 44°52' E 036°36'0 0.0
2016-Aug-21 12:32N 44°52' E 036°36'0 0.0
2016-Aug-21 11:31N 44°52' E 036°36'0 0.0
2016-Aug-21 10:32N 44°52' E 036°36'0 0.0
2016-Aug-21 09:22N 44°52' E 036°36'0 0.0
2016-Aug-21 02:25N 44°52' E 036°36'0 0.0
2016-Aug-21 01:31N 44°52' E 036°36'0 0.0
2016-Aug-20 19:32N 44°52' E 036°36'0 0.0
2016-Aug-20 18:14N 44°52' E 036°36'0 0.0
2016-Aug-20 17:32N 44°52' E 036°36'0 0.0
2016-Aug-20 16:32N 44°52' E 036°36'0 0.0
2016-Aug-20 14:22N 44°52' E 036°36'0 0.1
2016-Aug-20 13:31N 44°52' E 036°36'0 0.0
2016-Aug-20 12:32N 44°52' E 036°36'0 0.0
2016-Aug-20 10:05N 44°52' E 036°36'0 0.0
2016-Aug-20 09:32N 44°52' E 036°36'0 0.0
2016-Aug-19 19:26N 44°52' E 036°36'0 0.0
2016-Aug-19 18:31N 44°52' E 036°36'0 0.0
2016-Aug-19 16:31N 44°52' E 036°36'0 0.0
2016-Aug-17 22:20N 44°52' E 036°36'3 0.2
2016-Aug-17 08:28N 44°53' E 036°33'79 9.8
2016-Aug-17 00:24N 44°01' E 035°10'910.8
2016-Aug-16 23:33N 43°56' E 034°60'1410.8
2016-Aug-16 22:13N 43°48' E 034°43'811.0
2016-Aug-16 21:32N 43°44' E 034°34'295 6.1
2016-Aug-14 21:10N 41°02' E 029°00'5 7.3
2016-Aug-14 20:32N 40°57' E 028°60'1110.7
2016-Aug-14 19:32N 40°49' E 028°50'10 1.9
2016-Aug-14 14:33N 40°39' E 028°52'1 0.5
2016-Aug-14 13:29N 40°39' E 028°53'1 1.0
2016-Aug-14 12:05N 40°41' E 028°53'1 1.1
2016-Aug-14 11:29N 40°41' E 028°53'1 1.2
2016-Aug-14 10:24N 40°42' E 028°53'5 6.1
2016-Aug-14 09:31N 40°48' E 028°55'2 1.6
2016-Aug-14 08:33N 40°49' E 028°56'2 1.8
2016-Aug-14 07:33N 40°47' E 028°55'6 6.2
2016-Aug-14 06:33N 40°48' E 028°46'  

Dump ship's entire track history